Time;durP1;ratioP1;P1;durP2;ratioP2;P2;SDS_P1;SDS_P2;PMS_P1;PMS_P2;Temp;Humidity;BMP_temperature;BMP_pressure;BME280_temperature;BME280_humidity;BME280_pressure;Samples;Min_cycle;Max_cycle;Signal;HPM_P1;HPM_P2
2023/03/02 00:00:03;;;;;;;3.28;2.85;;;20.10;63.20;;;;;;5044615;28;20203;-63
2023/03/02 00:02:31;;;;;;;3.85;2.80;;;20.10;63.20;;;;;;5048754;28;20659;-60
2023/03/02 00:04:58;;;;;;;2.80;2.30;;;20.10;63.20;;;;;;5044474;28;20192;-61
2023/03/02 00:07:30;;;;;;;3.30;2.95;;;20.10;63.30;;;;;;5046176;28;20203;-65
2023/03/02 00:09:58;;;;;;;2.75;2.53;;;20.10;63.30;;;;;;5039726;28;20202;-62
2023/03/02 00:12:28;;;;;;;2.67;2.45;;;20.10;63.30;;;;;;5044137;28;20199;-66
2023/03/02 00:14:55;;;;;;;3.58;2.70;;;20.10;63.30;;;;;;5038813;28;20199;-61
2023/03/02 00:17:26;;;;;;;2.22;2.03;;;20.10;63.40;;;;;;5043879;28;20220;-63
2023/03/02 00:19:53;;;;;;;3.58;2.90;;;20.10;63.40;;;;;;5043518;28;20196;-62
2023/03/02 00:22:20;;;;;;;2.65;2.45;;;20.10;63.40;;;;;;5050925;28;20630;-62
2023/03/02 00:24:46;;;;;;;4.05;2.70;;;20.10;63.40;;;;;;5044987;28;20203;-63
2023/03/02 00:27:15;;;;;;;2.78;2.50;;;20.10;63.40;;;;;;5050123;28;20203;-62
2023/03/02 00:29:42;;;;;;;2.88;2.50;;;20.10;63.50;;;;;;5051759;28;20200;-63
2023/03/02 00:32:10;;;;;;;3.50;2.55;;;20.10;63.50;;;;;;5051356;28;20192;-62
2023/03/02 00:34:37;;;;;;;2.75;2.20;;;20.10;63.50;;;;;;5050962;28;20199;-62
2023/03/02 00:37:03;;;;;;;2.58;2.35;;;20.10;63.50;;;;;;5045330;28;20226;-64
2023/03/02 00:39:30;;;;;;;2.22;2.13;;;20.10;63.50;;;;;;5047144;28;20208;-61
2023/03/02 00:41:57;;;;;;;2.42;2.22;;;20.10;63.50;;;;;;5048655;28;20196;-67
2023/03/02 00:44:25;;;;;;;2.95;2.65;;;20.10;63.60;;;;;;5049172;28;20199;-65
2023/03/02 00:46:52;;;;;;;3.85;1.80;;;20.10;63.70;;;;;;5046749;28;20191;-65
2023/03/02 00:49:18;;;;;;;3.20;2.35;;;20.00;63.50;;;;;;5050628;28;20206;-64
2023/03/02 00:51:45;;;;;;;2.55;2.22;;;20.10;63.60;;;;;;5044186;28;20191;-61
2023/03/02 00:54:12;;;;;;;3.00;2.70;;;20.10;63.70;;;;;;5045819;28;20203;-64
2023/03/02 00:56:38;;;;;;;2.78;2.50;;;20.00;63.50;;;;;;5048998;28;20288;-64
2023/03/02 00:59:06;;;;;;;2.88;2.35;;;20.00;63.50;;;;;;5044037;28;20199;-61
2023/03/02 01:01:34;;;;;;;2.35;2.15;;;20.00;63.60;;;;;;5048997;28;20199;-61
2023/03/02 01:04:01;;;;;;;2.72;1.80;;;20.00;63.60;;;;;;5044662;28;20188;-60
2023/03/02 01:06:27;;;;;;;2.15;1.95;;;20.00;63.60;;;;;;5042887;28;20200;-62
2023/03/02 01:08:54;;;;;;;2.38;2.10;;;20.00;63.60;;;;;;5045588;28;20203;-63
2023/03/02 01:11:22;;;;;;;3.30;2.67;;;20.10;63.80;;;;;;5045600;28;20198;-62
2023/03/02 01:13:50;;;;;;;2.58;2.38;;;20.10;63.70;;;;;;5047471;28;20569;-62
2023/03/02 01:16:16;;;;;;;2.20;2.00;;;20.10;63.70;;;;;;5047216;28;20219;-61
2023/03/02 01:18:44;;;;;;;2.53;2.20;;;20.10;63.80;;;;;;5046014;28;20222;-66
2023/03/02 01:21:14;;;;;;;3.17;2.75;;;20.10;63.80;;;;;;5044452;28;20204;-62
2023/03/02 01:23:41;;;;;;;2.80;2.50;;;20.10;63.80;;;;;;5039805;28;20200;-66
2023/03/02 01:26:08;;;;;;;2.53;2.33;;;20.10;63.80;;;;;;5045154;28;20187;-61
2023/03/02 01:28:34;;;;;;;2.80;2.20;;;20.10;63.80;;;;;;5052136;28;20674;-62
2023/03/02 01:31:03;;;;;;;3.25;1.98;;;20.10;63.80;;;;;;5048435;28;20192;-64
2023/03/02 01:33:30;;;;;;;2.85;2.22;;;20.10;63.80;;;;;;5047468;28;20658;-61
2023/03/02 01:35:58;;;;;;;2.15;1.95;;;20.10;63.80;;;;;;5049411;28;20192;-62
2023/03/02 01:38:24;;;;;;;2.50;2.30;;;20.10;63.80;;;;;;5047980;28;20227;-61
2023/03/02 01:40:51;;;;;;;1.73;1.60;;;20.10;63.80;;;;;;5051685;28;20199;-62
2023/03/02 01:43:18;;;;;;;2.80;2.25;;;20.10;63.80;;;;;;5050785;28;20688;-61
2023/03/02 01:45:52;;;;;;;2.30;1.92;;;20.10;63.80;;;;;;5048216;28;20196;-65
2023/03/02 01:48:23;;;;;;;2.65;2.00;;;20.10;63.80;;;;;;5045980;28;20195;-63
2023/03/02 01:50:50;;;;;;;2.75;2.55;;;20.10;63.80;;;;;;5044300;28;20223;-62
2023/03/02 01:53:20;;;;;;;2.63;1.80;;;20.10;63.80;;;;;;5048394;28;20192;-62
2023/03/02 01:55:48;;;;;;;2.10;1.90;;;20.10;63.80;;;;;;5046009;28;20214;-61
2023/03/02 01:58:17;;;;;;;3.17;2.22;;;20.10;63.80;;;;;;5042503;28;20602;-61
2023/03/02 02:00:44;;;;;;;2.20;1.92;;;20.10;63.80;;;;;;5046098;28;20202;-66
2023/03/02 02:03:19;;;;;;;2.13;1.90;;;20.10;63.80;;;;;;5043048;28;20199;-62
2023/03/02 02:05:55;;;;;;;1.98;1.88;;;20.10;63.80;;;;;;5043114;28;20187;-62
2023/03/02 02:08:23;;;;;;;2.40;1.92;;;20.10;63.80;;;;;;5049129;28;20203;-62
2023/03/02 02:10:51;;;;;;;2.05;1.80;;;20.10;63.80;;;;;;5042548;28;20227;-62
2023/03/02 02:13:18;;;;;;;2.88;2.20;;;20.00;63.70;;;;;;5044621;28;20199;-60
2023/03/02 02:15:45;;;;;;;1.95;1.75;;;20.00;63.70;;;;;;5042318;28;20234;-66
2023/03/02 02:18:11;;;;;;;3.08;2.00;;;20.10;63.80;;;;;;5039894;28;20246;-62
2023/03/02 02:20:41;;;;;;;1.70;1.60;;;20.10;63.80;;;;;;5047859;28;20619;-62
2023/03/02 02:23:25;;;;;;;2.40;2.20;;;20.10;63.80;;;;;;5050367;28;20736;-62
2023/03/02 02:26:17;;;;;;;2.53;2.20;;;20.00;63.70;;;;;;5050825;28;20245;-62
2023/03/02 02:28:48;;;;;;;1.95;1.65;;;20.10;63.80;;;;;;5048679;28;20218;-63
2023/03/02 02:31:19;;;;;;;2.20;1.90;;;20.10;63.90;;;;;;5048318;28;20207;-62
2023/03/02 02:33:51;;;;;;;2.55;2.35;;;20.00;63.80;;;;;;5044032;28;20683;-63
2023/03/02 02:36:23;;;;;;;1.80;1.42;;;20.00;63.80;;;;;;5045314;28;20192;-61
2023/03/02 02:38:53;;;;;;;1.88;1.60;;;20.00;63.80;;;;;;5046099;28;20216;-64
2023/03/02 02:41:25;;;;;;;2.03;1.85;;;20.00;63.80;;;;;;5048215;28;20192;-63
2023/03/02 02:43:56;;;;;;;2.15;1.95;;;20.00;63.80;;;;;;5048773;28;20203;-63
2023/03/02 02:46:23;;;;;;;1.50;1.40;;;20.00;63.90;;;;;;5050178;28;20196;-70
2023/03/02 02:48:50;;;;;;;1.95;1.77;;;20.00;63.80;;;;;;5043092;28;20206;-62
2023/03/02 02:51:21;;;;;;;3.60;1.75;;;20.00;63.80;;;;;;5044136;28;20192;-63
2023/03/02 02:53:57;;;;;;;2.85;2.00;;;20.00;63.90;;;;;;5047044;28;20204;-61
2023/03/02 02:56:28;;;;;;;2.40;2.10;;;20.00;63.90;;;;;;5045451;28;20655;-63
2023/03/02 02:58:57;;;;;;;2.20;1.60;;;20.00;64.60;;;;;;5046406;28;20642;-65
2023/03/02 03:01:25;;;;;;;2.30;1.77;;;20.00;63.90;;;;;;5044917;28;20564;-62
2023/03/02 03:03:55;;;;;;;1.65;1.40;;;20.00;63.90;;;;;;5039401;28;20196;-62
2023/03/02 03:06:25;;;;;;;1.90;1.35;;;20.00;63.90;;;;;;5039409;28;20215;-62
2023/03/02 03:09:01;;;;;;;1.60;1.50;;;20.00;63.90;;;;;;5046024;28;20610;-62
2023/03/02 03:11:33;;;;;;;2.10;1.90;;;20.00;63.90;;;;;;5044106;28;20654;-62
2023/03/02 03:14:06;;;;;;;2.25;1.90;;;20.00;63.90;;;;;;5047566;28;20196;-62
2023/03/02 03:16:33;;;;;;;1.80;1.48;;;20.00;63.90;;;;;;5039266;28;20315;-68
2023/03/02 03:19:06;;;;;;;1.63;1.52;;;20.00;63.90;;;;;;5046480;28;20230;-63
2023/03/02 03:21:33;;;;;;;1.85;1.42;;;20.00;63.90;;;;;;5049653;28;20222;-62
2023/03/02 03:24:00;;;;;;;1.95;1.60;;;20.00;64.00;;;;;;5047051;28;20207;-64
2023/03/02 03:26:27;;;;;;;2.00;1.90;;;20.00;63.90;;;;;;5048723;28;20203;-62
2023/03/02 03:28:56;;;;;;;1.95;1.80;;;20.00;63.90;;;;;;5048047;28;20200;-63
2023/03/02 03:31:24;;;;;;;1.67;1.45;;;20.00;64.00;;;;;;5046608;28;20223;-65
2023/03/02 03:33:51;;;;;;;1.63;1.50;;;20.00;63.90;;;;;;5046830;28;20218;-64
2023/03/02 03:36:17;;;;;;;1.90;1.70;;;20.00;64.00;;;;;;5047652;28;20200;-63
2023/03/02 03:38:44;;;;;;;1.58;1.48;;;20.00;64.00;;;;;;5047183;28;20579;-63
2023/03/02 03:41:11;;;;;;;1.60;1.48;;;20.00;64.00;;;;;;5048820;28;20206;-62
2023/03/02 03:43:38;;;;;;;2.95;1.50;;;20.00;64.00;;;;;;5048184;28;20204;-62
2023/03/02 03:46:06;;;;;;;1.92;1.60;;;20.00;64.00;;;;;;5047014;28;20195;-62
2023/03/02 03:48:33;;;;;;;2.00;1.77;;;20.00;64.00;;;;;;5047793;28;20207;-62
2023/03/02 03:51:00;;;;;;;1.70;1.60;;;20.00;64.80;;;;;;5044330;28;20284;-63
2023/03/02 03:53:27;;;;;;;1.73;1.42;;;20.00;64.00;;;;;;5039455;28;20199;-62
2023/03/02 03:55:55;;;;;;;1.88;1.73;;;20.00;64.00;;;;;;5048623;28;20203;-63
2023/03/02 03:58:22;;;;;;;1.40;1.30;;;20.00;64.00;;;;;;5036863;28;20316;-62
2023/03/02 04:00:49;;;;;;;1.73;1.55;;;20.00;64.00;;;;;;5049380;28;20199;-61
2023/03/02 04:03:18;;;;;;;1.98;1.45;;;20.00;64.00;;;;;;5045592;28;20187;-67
2023/03/02 04:05:45;;;;;;;2.10;1.90;;;20.00;64.00;;;;;;5051740;28;20199;-62
2023/03/02 04:08:12;;;;;;;1.63;1.52;;;20.00;64.00;;;;;;5048182;28;20198;-64
2023/03/02 04:10:39;;;;;;;1.67;1.50;;;20.00;64.00;;;;;;5046973;28;20568;-62
2023/03/02 04:13:06;;;;;;;1.70;1.60;;;20.00;64.00;;;;;;5049339;28;20206;-63
2023/03/02 04:15:33;;;;;;;2.05;1.65;;;20.00;64.00;;;;;;5047511;28;20192;-62
2023/03/02 04:18:00;;;;;;;1.55;1.38;;;20.00;64.00;;;;;;5044150;28;20224;-65
2023/03/02 04:20:29;;;;;;;1.63;1.50;;;20.00;64.00;;;;;;5049735;28;20196;-61
2023/03/02 04:22:57;;;;;;;1.45;1.30;;;20.00;64.00;;;;;;5046875;28;20231;-64
2023/03/02 04:25:26;;;;;;;1.85;1.60;;;20.00;64.00;;;;;;5042800;28;20195;-62
2023/03/02 04:27:54;;;;;;;1.95;1.38;;;20.00;64.00;;;;;;5046833;28;20219;-60
2023/03/02 04:30:23;;;;;;;1.63;1.50;;;20.00;64.10;;;;;;5043832;28;20192;-63
2023/03/02 04:32:50;;;;;;;1.95;1.35;;;20.00;64.10;;;;;;5040913;28;20192;-62
2023/03/02 04:35:17;;;;;;;1.65;1.27;;;20.00;64.10;;;;;;5043451;28;20211;-63
2023/03/02 04:37:46;;;;;;;1.67;1.45;;;20.00;64.10;;;;;;5050242;28;20196;-62
2023/03/02 04:40:13;;;;;;;1.73;1.40;;;20.00;64.10;;;;;;5038619;28;20228;-62
2023/03/02 04:42:40;;;;;;;1.58;1.40;;;20.00;64.10;;;;;;5046490;28;20214;-64
2023/03/02 04:45:08;;;;;;;1.40;1.20;;;20.00;64.10;;;;;;5045125;28;20261;-64
2023/03/02 04:47:35;;;;;;;1.55;1.35;;;20.00;64.10;;;;;;5049704;28;20741;-62
2023/03/02 04:50:01;;;;;;;1.70;1.50;;;20.00;64.20;;;;;;5048737;28;20196;-64
2023/03/02 04:52:28;;;;;;;1.50;1.23;;;20.00;64.20;;;;;;5044572;28;20225;-64
2023/03/02 04:54:56;;;;;;;1.48;1.27;;;20.00;64.20;;;;;;5051190;28;20199;-62
2023/03/02 04:57:23;;;;;;;1.10;1.00;;;20.00;64.20;;;;;;5048980;28;20226;-64
2023/03/02 04:59:50;;;;;;;1.50;1.40;;;20.00;64.20;;;;;;5050049;28;20224;-62
2023/03/02 05:02:17;;;;;;;1.38;1.10;;;20.00;64.20;;;;;;5046589;28;20199;-63
2023/03/02 05:04:43;;;;;;;1.65;1.42;;;20.00;64.20;;;;;;5044093;28;20196;-62
2023/03/02 05:07:10;;;;;;;1.65;1.40;;;20.00;64.20;;;;;;5040529;28;20192;-66
2023/03/02 05:09:37;;;;;;;1.70;1.38;;;20.00;64.20;;;;;;5038203;28;20211;-61
2023/03/02 05:12:05;;;;;;;1.40;1.30;;;20.00;64.20;;;;;;5041373;28;20200;-63
2023/03/02 05:14:32;;;;;;;1.55;1.40;;;20.00;64.20;;;;;;5042014;28;20201;-64
2023/03/02 05:16:59;;;;;;;1.50;1.38;;;20.00;64.20;;;;;;5039768;28;20196;-64
2023/03/02 05:19:26;;;;;;;1.30;1.20;;;20.00;64.20;;;;;;5041883;28;20302;-61
2023/03/02 05:21:52;;;;;;;1.98;1.77;;;20.00;64.20;;;;;;5050226;28;20211;-67
2023/03/02 05:24:19;;;;;;;1.17;1.05;;;20.00;64.20;;;;;;5046061;28;20638;-61
2023/03/02 05:26:49;;;;;;;1.40;1.13;;;20.00;64.20;;;;;;5052153;28;20215;-61
2023/03/02 05:29:17;;;;;;;1.50;1.25;;;20.00;64.20;;;;;;5050486;28;20206;-61
2023/03/02 05:31:46;;;;;;;1.52;1.00;;;20.00;64.20;;;;;;5046178;28;20200;-61
2023/03/02 05:34:14;;;;;;;4.20;1.27;;;20.00;64.20;;;;;;5046521;28;20195;-63
2023/03/02 05:36:41;;;;;;;1.45;1.30;;;20.00;65.00;;;;;;5049853;28;20208;-62
2023/03/02 05:39:09;;;;;;;1.30;1.20;;;20.00;64.20;;;;;;5044263;28;20223;-61
2023/03/02 05:41:37;;;;;;;1.50;1.30;;;20.00;64.30;;;;;;5041990;28;20195;-65
2023/03/02 05:44:04;;;;;;;1.50;1.35;;;20.00;64.30;;;;;;5041773;28;20219;-61
2023/03/02 05:46:32;;;;;;;1.17;1.08;;;20.00;64.30;;;;;;5046637;28;20195;-63
2023/03/02 05:48:59;;;;;;;1.50;1.23;;;20.00;64.30;;;;;;5047712;28;20208;-62
2023/03/02 05:51:27;;;;;;;1.60;1.50;;;20.00;64.30;;;;;;5048967;28;20594;-62
2023/03/02 05:53:53;;;;;;;1.50;1.23;;;20.00;64.30;;;;;;5043158;28;20651;-61
2023/03/02 05:56:21;;;;;;;1.55;1.23;;;20.00;64.30;;;;;;5040169;28;20191;-61
2023/03/02 05:58:48;;;;;;;1.80;1.30;;;20.00;64.30;;;;;;5048433;28;20227;-63
2023/03/02 06:01:14;;;;;;;1.50;1.40;;;20.00;64.30;;;;;;5041795;28;20196;-62
2023/03/02 06:03:43;;;;;;;1.20;1.00;;;20.00;64.30;;;;;;5044209;28;20199;-62
2023/03/02 06:06:14;;;;;;;1.63;1.45;;;20.00;64.30;;;;;;5047375;28;20187;-60
2023/03/02 06:08:42;;;;;;;1.77;1.50;;;20.00;64.30;;;;;;5039911;28;20207;-64
2023/03/02 06:11:09;;;;;;;1.40;1.23;;;20.00;64.30;;;;;;5050032;28;20207;-62
2023/03/02 06:13:36;;;;;;;1.55;1.20;;;20.00;64.30;;;;;;5048835;28;20199;-62
2023/03/02 06:16:03;;;;;;;1.38;1.27;;;20.00;64.30;;;;;;5044331;28;20199;-61
2023/03/02 06:18:29;;;;;;;1.50;1.40;;;20.00;64.30;;;;;;5045511;28;20198;-64
2023/03/02 06:20:58;;;;;;;1.30;1.10;;;20.00;64.30;;;;;;5056715;28;20210;-62
2023/03/02 06:23:25;;;;;;;1.23;1.02;;;20.00;64.30;;;;;;5037929;28;20267;-65
2023/03/02 06:25:52;;;;;;;1.77;1.45;;;20.00;64.40;;;;;;5046230;28;20575;-62
2023/03/02 06:28:19;;;;;;;1.80;1.55;;;20.00;64.30;;;;;;5043012;28;20211;-62
2023/03/02 06:30:47;;;;;;;1.15;1.00;;;20.00;64.30;;;;;;5042049;28;20203;-63
2023/03/02 06:33:14;;;;;;;1.40;1.17;;;20.00;64.30;;;;;;5044689;28;20626;-61
2023/03/02 06:35:41;;;;;;;1.33;1.20;;;20.00;64.30;;;;;;5038865;28;20253;-62
2023/03/02 06:38:09;;;;;;;1.40;1.30;;;20.00;64.30;;;;;;5042713;28;20230;-65
2023/03/02 06:40:36;;;;;;;1.00;0.90;;;20.00;64.20;;;;;;5042967;28;20216;-62
2023/03/02 06:43:03;;;;;;;1.80;0.95;;;20.00;64.20;;;;;;5045551;28;20210;-61
2023/03/02 06:45:32;;;;;;;1.50;1.40;;;20.00;64.20;;;;;;5041314;28;20656;-61
2023/03/02 06:47:59;;;;;;;1.45;1.25;;;19.90;64.20;;;;;;5048719;28;20198;-61
2023/03/02 06:50:26;;;;;;;1.60;1.30;;;19.90;64.20;;;;;;5045413;28;20207;-62
2023/03/02 06:52:53;;;;;;;1.58;1.40;;;19.90;64.20;;;;;;5038422;28;20191;-61
2023/03/02 06:55:21;;;;;;;1.65;1.55;;;19.90;64.30;;;;;;5048058;28;20192;-64
2023/03/02 06:57:47;;;;;;;1.25;0.95;;;19.90;64.30;;;;;;5046544;28;20195;-67
2023/03/02 07:00:16;;;;;;;1.25;1.15;;;19.90;65.00;;;;;;5036113;28;20216;-62
2023/03/02 07:02:43;;;;;;;1.30;1.20;;;20.00;64.40;;;;;;5043468;28;20708;-66
2023/03/02 07:05:10;;;;;;;1.25;1.02;;;20.00;64.30;;;;;;5038486;28;20227;-61
2023/03/02 07:07:37;;;;;;;1.30;1.13;;;20.00;64.30;;;;;;5043844;28;20204;-66
2023/03/02 07:10:05;;;;;;;1.30;1.20;;;20.00;64.40;;;;;;5047385;28;20211;-62
2023/03/02 07:12:34;;;;;;;1.25;1.15;;;20.10;64.40;;;;;;5045810;28;20206;-62
2023/03/02 07:15:00;;;;;;;1.35;1.10;;;20.10;64.40;;;;;;5040562;28;20202;-62
2023/03/02 07:17:27;;;;;;;1.38;1.10;;;20.10;64.30;;;;;;5039146;28;20207;-61
2023/03/02 07:19:54;;;;;;;1.40;1.30;;;20.10;64.30;;;;;;5048110;28;20233;-62
2023/03/02 07:22:21;;;;;;;1.40;1.30;;;20.10;64.30;;;;;;5037907;28;20228;-61
2023/03/02 07:24:47;;;;;;;1.52;1.17;;;20.10;64.30;;;;;;5047997;28;20213;-67
2023/03/02 07:27:14;;;;;;;1.30;1.20;;;20.10;64.30;;;;;;5045454;28;20207;-61
2023/03/02 07:29:42;;;;;;;1.30;1.20;;;20.10;64.40;;;;;;5045538;28;20195;-61
2023/03/02 07:32:09;;;;;;;1.20;1.10;;;20.10;64.40;;;;;;5043985;28;20293;-61
2023/03/02 07:34:35;;;;;;;1.52;1.13;;;20.10;64.40;;;;;;5044973;28;20203;-64
2023/03/02 07:37:02;;;;;;;1.70;1.30;;;20.10;64.40;;;;;;5049641;28;20218;-61
2023/03/02 07:39:29;;;;;;;1.27;1.10;;;20.20;64.50;;;;;;5048853;28;20215;-61
2023/03/02 07:41:57;;;;;;;1.38;0.95;;;20.20;64.50;;;;;;5045730;28;20660;-63
2023/03/02 07:44:24;;;;;;;1.40;1.20;;;20.20;64.50;;;;;;5044127;28;20205;-61
2023/03/02 07:46:53;;;;;;;1.20;1.00;;;20.20;64.50;;;;;;5050061;28;20191;-61
2023/03/02 07:49:19;;;;;;;1.40;1.30;;;20.10;64.30;;;;;;5047055;28;20211;-60
2023/03/02 07:51:46;;;;;;;1.20;1.05;;;20.10;64.30;;;;;;5043096;28;20202;-62
2023/03/02 07:54:13;;;;;;;1.40;1.30;;;20.10;64.20;;;;;;5048879;28;20195;-61
2023/03/02 07:56:40;;;;;;;1.15;1.00;;;20.10;64.20;;;;;;5046488;28;20199;-64
2023/03/02 07:59:07;;;;;;;1.20;0.90;;;20.10;64.20;;;;;;5046540;28;20230;-61
2023/03/02 08:01:34;;;;;;;1.40;1.30;;;20.10;64.20;;;;;;5043875;28;20203;-60
2023/03/02 08:04:02;;;;;;;1.20;1.08;;;20.10;64.30;;;;;;5047423;28;20195;-61
2023/03/02 08:06:28;;;;;;;1.30;1.10;;;20.10;64.20;;;;;;5045697;28;20559;-62
2023/03/02 08:08:55;;;;;;;1.20;1.10;;;20.10;64.30;;;;;;5042003;28;20191;-65
2023/03/02 08:11:22;;;;;;;1.30;1.20;;;20.10;64.30;;;;;;5046788;28;20196;-66
2023/03/02 08:13:49;;;;;;;1.25;1.15;;;20.10;64.30;;;;;;5038322;28;20679;-61
2023/03/02 08:16:16;;;;;;;1.38;1.25;;;20.10;64.40;;;;;;5042750;28;20203;-61
2023/03/02 08:18:43;;;;;;;1.45;1.00;;;20.20;64.50;;;;;;5042475;28;20215;-61
2023/03/02 08:21:16;;;;;;;1.23;1.10;;;20.20;64.50;;;;;;5041557;28;20219;-64
2023/03/02 08:23:43;;;;;;;1.88;1.30;;;20.20;64.40;;;;;;5043268;28;20215;-63
2023/03/02 08:26:10;;;;;;;1.60;1.33;;;20.30;64.50;;;;;;5045122;28;20191;-61
2023/03/02 08:28:37;;;;;;;1.10;0.95;;;20.30;64.50;;;;;;5043655;28;20199;-62
2023/03/02 08:31:05;;;;;;;1.48;1.10;;;20.30;64.50;;;;;;5038900;28;20203;-64
2023/03/02 08:33:33;;;;;;;0.90;0.70;;;20.30;64.50;;;;;;5043017;28;20681;-64
2023/03/02 08:36:02;;;;;;;1.40;1.30;;;20.30;64.40;;;;;;5043148;28;20942;-66
2023/03/02 08:38:31;;;;;;;1.30;1.00;;;20.30;64.50;;;;;;5039620;28;20207;-64
2023/03/02 08:40:58;;;;;;;1.40;1.10;;;20.40;64.60;;;;;;5050821;28;20215;-61
2023/03/02 08:43:25;;;;;;;1.10;1.00;;;20.40;64.50;;;;;;5044845;28;20659;-65
2023/03/02 08:45:53;;;;;;;1.30;1.20;;;20.40;64.50;;;;;;5045739;28;20454;-64
2023/03/02 08:48:20;;;;;;;1.02;0.90;;;20.40;64.50;;;;;;5041940;28;20204;-61
2023/03/02 08:50:54;;;;;;;1.20;1.10;;;20.40;64.50;;;;;;5044740;28;20195;-63
2023/03/02 08:53:21;;;;;;;1.33;1.10;;;20.40;64.50;;;;;;5049444;28;20202;-64
2023/03/02 08:55:49;;;;;;;1.00;0.90;;;20.40;64.50;;;;;;5048255;28;20211;-61
2023/03/02 08:58:16;;;;;;;1.33;0.98;;;20.40;64.50;;;;;;5049142;28;20537;-61
2023/03/02 09:00:43;;;;;;;1.20;1.08;;;20.40;64.50;;;;;;5044696;28;20313;-61
2023/03/02 09:03:10;;;;;;;1.20;1.10;;;20.30;64.40;;;;;;5049624;28;20199;-63
2023/03/02 09:05:36;;;;;;;1.55;1.25;;;20.30;64.30;;;;;;5039695;28;21735;-64
2023/03/02 09:08:04;;;;;;;1.95;1.60;;;20.30;64.30;;;;;;5044725;28;20207;-61
2023/03/02 09:10:30;;;;;;;2.40;1.65;;;20.30;64.10;;;;;;5036621;28;20208;-61
2023/03/02 09:12:59;;;;;;;1.70;1.33;;;20.20;63.60;;;;;;5043592;28;20220;-63
2023/03/02 09:15:26;;;;;;;3.03;1.63;;;20.10;63.50;;;;;;5043335;28;20199;-61
2023/03/02 09:17:53;;;;;;;1.98;1.77;;;20.10;63.00;;;;;;5043479;28;20655;-55
2023/03/02 09:20:20;;;;;;;5.30;1.65;;;20.00;62.20;;;;;;5048888;28;20219;-56
2023/03/02 09:22:49;;;;;;;1.95;1.80;;;20.10;62.10;;;;;;5050841;28;20215;-52
2023/03/02 09:25:17;;;;;;;2.85;1.98;;;20.00;61.40;;;;;;5049980;28;20610;-58
2023/03/02 09:27:43;;;;;;;3.40;1.98;;;20.00;61.40;;;;;;5044350;28;20203;-58
2023/03/02 09:30:14;;;;;;;2.00;1.60;;;20.00;61.20;;;;;;5041715;28;20218;-54
2023/03/02 09:32:40;;;;;;;1.92;1.60;;;20.00;61.10;;;;;;5049849;28;20211;-63
2023/03/02 09:35:08;;;;;;;2.17;1.60;;;20.00;60.70;;;;;;5039167;28;20199;-59
2023/03/02 09:37:37;;;;;;;1.90;1.63;;;20.00;60.80;;;;;;5049168;28;20222;-60
2023/03/02 09:40:10;;;;;;;1.98;1.48;;;20.10;61.00;;;;;;5043149;28;20231;-57
2023/03/02 09:42:57;;;;;;;2.95;1.60;;;20.10;61.00;;;;;;5050989;28;20207;-59
2023/03/02 09:45:50;;;;;;;2.30;2.10;;;20.20;61.20;;;;;;5045461;28;20652;-61
2023/03/02 09:48:24;;;;;;;2.10;1.88;;;20.20;61.30;;;;;;5045480;28;20207;-56
2023/03/02 09:51:00;;;;;;;2.58;1.83;;;20.20;61.40;;;;;;5046640;28;20214;-56
2023/03/02 09:53:44;;;;;;;2.25;2.05;;;20.20;61.40;;;;;;5047415;28;20188;-62
2023/03/02 09:56:16;;;;;;;1.60;1.50;;;20.30;61.50;;;;;;5041721;28;20655;-57
2023/03/02 09:58:49;;;;;;;1.90;1.70;;;20.30;61.60;;;;;;5052215;28;20195;-57
2023/03/02 10:01:28;;;;;;;1.63;1.52;;;20.30;61.60;;;;;;5047818;28;20234;-57
2023/03/02 10:04:01;;;;;;;1.85;1.70;;;20.30;61.80;;;;;;5044083;28;20583;-57
2023/03/02 10:06:28;;;;;;;3.28;2.35;;;20.30;61.70;;;;;;5042952;28;20207;-58
2023/03/02 10:08:55;;;;;;;1.75;1.60;;;20.30;61.70;;;;;;5047234;28;20578;-59
2023/03/02 10:11:31;;;;;;;7.13;2.10;;;20.30;61.80;;;;;;5048618;28;20210;-54
2023/03/02 10:14:01;;;;;;;2.55;1.80;;;20.30;61.90;;;;;;5045247;28;20199;-54
2023/03/02 10:16:37;;;;;;;1.50;1.40;;;20.30;61.90;;;;;;5045436;28;20718;-54
2023/03/02 10:19:08;;;;;;;4.38;1.90;;;20.30;61.90;;;;;;5047447;28;20468;-56
2023/03/02 10:21:39;;;;;;;1.30;1.00;;;20.30;61.90;;;;;;5047313;28;20231;-58
2023/03/02 10:24:14;;;;;;;2.00;1.80;;;20.20;61.80;;;;;;5042753;28;20571;-55
2023/03/02 10:26:43;;;;;;;2.08;1.75;;;20.20;61.90;;;;;;5045243;28;20199;-51
2023/03/02 10:29:27;;;;;;;1.70;1.60;;;20.20;61.90;;;;;;5048163;28;20509;-55
2023/03/02 10:32:00;;;;;;;2.00;1.50;;;20.20;62.00;;;;;;5045894;28;20214;-54
2023/03/02 10:34:31;;;;;;;2.58;1.90;;;20.20;62.00;;;;;;5047575;28;20211;-55
2023/03/02 10:36:58;;;;;;;3.20;1.52;;;20.20;62.10;;;;;;5045738;28;20207;-57
2023/03/02 10:39:25;;;;;;;1.88;1.67;;;20.20;62.10;;;;;;5046340;28;20203;-51
2023/03/02 10:41:56;;;;;;;1.30;1.20;;;20.20;62.10;;;;;;5047716;28;20215;-62
2023/03/02 10:44:27;;;;;;;2.28;2.10;;;20.20;62.10;;;;;;5047558;28;20211;-55
2023/03/02 10:46:55;;;;;;;1.90;1.73;;;20.10;61.30;;;;;;5042767;28;20203;-62
2023/03/02 10:49:27;;;;;;;3.80;2.67;;;20.00;60.40;;;;;;5044706;28;20203;-58
2023/03/02 10:52:00;;;;;;;4.15;2.30;;;20.00;60.40;;;;;;5046089;28;20202;-57
2023/03/02 10:54:28;;;;;;;3.13;2.17;;;20.10;60.90;;;;;;5045920;28;20192;-53
2023/03/02 10:56:57;;;;;;;5.38;2.38;;;20.10;61.10;;;;;;5039259;28;20234;-60
2023/03/02 10:59:43;;;;;;;6.95;1.90;;;20.20;61.40;;;;;;5041420;28;20227;-69
2023/03/02 11:02:21;;;;;;;4.95;2.30;;;20.20;62.40;;;;;;5044531;28;20228;-68
2023/03/02 11:04:48;;;;;;;2.47;2.00;;;20.20;61.70;;;;;;5044063;28;20563;-69
2023/03/02 11:07:17;;;;;;;1.60;1.38;;;20.20;61.80;;;;;;5043285;28;20557;-66
2023/03/02 11:09:44;;;;;;;2.08;1.75;;;20.30;62.00;;;;;;5044372;28;20200;-67
2023/03/02 11:12:16;;;;;;;2.88;1.85;;;20.30;62.10;;;;;;5046155;28;20211;-61
2023/03/02 11:14:42;;;;;;;2.17;1.65;;;20.30;62.20;;;;;;5040827;28;20224;-61
2023/03/02 11:17:33;;;;;;;1.63;1.45;;;20.30;62.20;;;;;;5047172;28;20429;-59
2023/03/02 11:20:02;;;;;;;2.40;1.38;;;20.30;62.10;;;;;;5043624;28;20199;-65
2023/03/02 11:22:36;;;;;;;2.38;1.73;;;20.30;62.20;;;;;;5045236;28;20219;-59
2023/03/02 11:25:07;;;;;;;18.33;2.30;;;20.30;62.10;;;;;;5035326;28;20248;-62
2023/03/02 11:27:39;;;;;;;3.72;2.05;;;20.30;61.90;;;;;;5041439;28;20196;-68
2023/03/02 11:30:12;;;;;;;2.78;2.33;;;20.20;61.70;;;;;;5039160;28;20196;-61
2023/03/02 11:32:47;;;;;;;2.25;1.92;;;20.20;61.40;;;;;;5039598;28;20200;-56
2023/03/02 11:35:21;;;;;;;4.63;2.70;;;20.10;61.20;;;;;;5043617;28;20655;-58
2023/03/02 11:37:50;;;;;;;4.22;2.83;;;20.10;61.40;;;;;;5047005;28;20192;-61
2023/03/02 11:40:25;;;;;;;5.20;2.78;;;20.10;61.30;;;;;;5043918;28;20209;-56
2023/03/02 11:42:55;;;;;;;4.10;2.53;;;20.10;61.60;;;;;;5044807;28;20284;-56
2023/03/02 11:45:26;;;;;;;2.78;2.38;;;20.10;61.80;;;;;;5044555;28;20224;-62
2023/03/02 11:47:57;;;;;;;4.45;2.80;;;20.10;62.10;;;;;;5046874;28;20195;-57
2023/03/02 11:50:26;;;;;;;6.50;3.42;;;20.10;62.30;;;;;;5047623;28;20206;-58
2023/03/02 11:52:57;;;;;;;4.95;3.80;;;20.10;62.50;;;;;;5046206;28;20242;-64
2023/03/02 11:55:26;;;;;;;3.10;2.80;;;20.10;62.60;;;;;;5050393;28;20195;-62
2023/03/02 11:57:55;;;;;;;3.15;2.33;;;20.10;62.80;;;;;;5045381;28;20199;-61
2023/03/02 12:00:31;;;;;;;4.60;3.22;;;20.10;62.90;;;;;;5049455;28;20192;-58
2023/03/02 12:03:01;;;;;;;3.03;2.63;;;20.10;63.10;;;;;;5039481;28;20539;-54
2023/03/02 12:05:29;;;;;;;2.50;2.30;;;20.10;63.30;;;;;;5046674;28;20459;-54
2023/03/02 12:07:58;;;;;;;4.03;3.50;;;20.10;63.40;;;;;;5048901;28;20255;-56
2023/03/02 12:10:30;;;;;;;5.40;3.92;;;20.10;63.70;;;;;;5049403;28;20219;-57
2023/03/02 12:13:03;;;;;;;4.00;3.60;;;20.10;63.90;;;;;;5042285;28;20201;-61
2023/03/02 12:15:36;;;;;;;4.55;3.78;;;20.10;63.90;;;;;;5045160;28;20201;-53
2023/03/02 12:18:15;;;;;;;3.30;3.00;;;20.10;64.00;;;;;;5045888;28;20460;-64
2023/03/02 12:20:42;;;;;;;5.00;3.42;;;20.10;64.30;;;;;;5051385;28;20215;-53
2023/03/02 12:23:21;;;;;;;3.45;3.15;;;20.00;63.80;;;;;;5051275;28;20575;-59
2023/03/02 12:25:50;;;;;;;2.78;2.58;;;20.00;63.90;;;;;;5048488;28;20204;-55
2023/03/02 12:28:32;;;;;;;2.80;2.60;;;20.00;64.00;;;;;;5048733;28;20195;-56
2023/03/02 12:31:08;;;;;;;6.28;2.55;;;20.10;64.90;;;;;;5051495;28;20204;-55
2023/03/02 12:33:43;;;;;;;3.60;2.97;;;20.00;64.00;;;;;;5046132;28;20203;-60
2023/03/02 12:36:18;;;;;;;3.40;2.70;;;20.00;64.10;;;;;;5044993;28;20776;-53
2023/03/02 12:38:56;;;;;;;3.72;3.15;;;20.00;64.20;;;;;;5049481;28;20194;-62
2023/03/02 12:41:40;;;;;;;3.38;2.80;;;20.00;64.20;;;;;;5050801;28;20223;-56
2023/03/02 12:44:33;;;;;;;3.25;3.03;;;20.00;64.20;;;;;;5051098;28;20299;-62
2023/03/02 12:47:00;;;;;;;5.10;3.05;;;20.00;64.30;;;;;;5049922;28;20196;-60
2023/03/02 12:49:46;;;;;;;3.35;3.05;;;20.00;65.10;;;;;;5049678;28;20267;-59
2023/03/02 12:52:22;;;;;;;3.33;2.80;;;20.00;64.40;;;;;;5047852;28;20808;-56
2023/03/02 12:55:00;;;;;;;3.60;2.90;;;20.00;64.40;;;;;;5041646;28;20203;-53
2023/03/02 12:57:27;;;;;;;4.13;3.13;;;20.00;64.50;;;;;;5051164;28;20199;-59